createdAt,value
2017-09-08T00:00:10.009Z,0
2017-09-08T00:00:50.582Z,0
2017-09-08T00:01:31.134Z,0
2017-09-08T00:02:11.707Z,0
2017-09-08T00:02:52.259Z,0
2017-09-08T00:03:32.823Z,0
2017-09-08T00:04:13.384Z,0
2017-09-08T00:04:53.955Z,0
2017-09-08T00:05:34.531Z,0
2017-09-08T00:06:15.097Z,0
2017-09-08T00:06:55.671Z,0
2017-09-08T00:07:36.241Z,0
2017-09-08T00:08:16.822Z,0
2017-09-08T00:08:57.410Z,0
2017-09-08T00:09:37.972Z,0
2017-09-08T00:10:18.534Z,0
2017-09-08T00:10:59.088Z,0
2017-09-08T00:11:39.655Z,0
2017-09-08T00:12:20.224Z,0
2017-09-08T00:13:00.798Z,0
2017-09-08T00:13:41.364Z,0
2017-09-08T00:14:21.960Z,0
2017-09-08T00:15:02.524Z,0
2017-09-08T00:15:43.092Z,0
2017-09-08T00:16:23.648Z,0
2017-09-08T00:17:04.227Z,0
2017-09-08T00:17:44.797Z,0
2017-09-08T00:18:25.395Z,0
2017-09-08T00:19:05.938Z,0
2017-09-08T00:19:46.498Z,0
2017-09-08T00:20:27.082Z,0
2017-09-08T00:21:07.657Z,0
2017-09-08T00:21:48.219Z,0
2017-09-08T00:22:31.292Z,0
2017-09-08T00:23:11.866Z,0
2017-09-08T00:23:52.431Z,0
2017-09-08T00:24:33.005Z,0
2017-09-08T00:25:13.562Z,0
2017-09-08T00:25:54.124Z,0
2017-09-08T00:26:34.701Z,0
2017-09-08T00:27:15.256Z,0
2017-09-08T00:27:55.818Z,0
2017-09-08T00:28:36.388Z,0
2017-09-08T00:29:16.958Z,0
2017-09-08T00:29:57.548Z,0
2017-09-08T00:30:38.116Z,0
2017-09-08T00:31:18.678Z,0
2017-09-08T00:31:59.241Z,0
2017-09-08T00:32:39.836Z,0
2017-09-08T00:33:20.409Z,0
2017-09-08T00:34:00.984Z,0
2017-09-08T00:34:41.544Z,0
2017-09-08T00:35:22.174Z,0
2017-09-08T00:36:02.749Z,0
2017-09-08T00:36:43.352Z,0
2017-09-08T00:37:23.926Z,0
2017-09-08T00:38:04.506Z,0
2017-09-08T00:38:45.103Z,0
2017-09-08T00:39:25.687Z,0
2017-09-08T00:40:06.253Z,0
2017-09-08T00:40:46.836Z,0
2017-09-08T00:41:27.393Z,0
2017-09-08T00:42:07.971Z,0
2017-09-08T00:42:48.522Z,0
2017-09-08T00:43:29.092Z,0
2017-09-08T00:44:09.665Z,0
2017-09-08T00:44:50.225Z,0
2017-09-08T00:45:30.815Z,0
2017-09-08T00:46:11.361Z,0
2017-09-08T00:46:51.945Z,0
2017-09-08T00:47:32.512Z,0
2017-09-08T00:48:13.074Z,0
2017-09-08T00:48:53.632Z,0
2017-09-08T00:49:34.209Z,0
2017-09-08T00:50:14.801Z,0
2017-09-08T00:50:55.388Z,0
2017-09-08T00:51:35.987Z,0
2017-09-08T00:52:16.569Z,0
2017-09-08T00:52:57.157Z,0
2017-09-08T00:53:37.737Z,0
2017-09-08T00:54:18.294Z,0
2017-09-08T00:54:58.852Z,0
2017-09-08T00:55:39.414Z,0
2017-09-08T00:56:19.978Z,0
2017-09-08T00:57:00.534Z,0
2017-09-08T00:57:41.131Z,0
2017-09-08T00:58:21.718Z,0
2017-09-08T00:59:02.332Z,0
2017-09-08T00:59:42.904Z,0
2017-09-08T01:00:23.469Z,0
2017-09-08T01:01:04.039Z,0
2017-09-08T01:01:44.644Z,0
2017-09-08T01:02:25.207Z,0
2017-09-08T01:03:05.774Z,0
2017-09-08T01:03:46.338Z,0
2017-09-08T01:04:26.918Z,0
2017-09-08T01:05:07.481Z,0
2017-09-08T01:05:48.055Z,0
2017-09-08T01:06:28.629Z,0
2017-09-08T01:07:09.189Z,0
2017-09-08T01:07:49.775Z,0
2017-09-08T01:08:30.344Z,0
2017-09-08T01:09:10.925Z,0
2017-09-08T01:09:51.512Z,0
2017-09-08T01:10:32.068Z,0
2017-09-08T01:11:12.647Z,0
2017-09-08T01:11:53.212Z,0
2017-09-08T01:12:33.814Z,0
2017-09-08T01:13:14.366Z,0
2017-09-08T01:13:54.936Z,0
2017-09-08T01:14:35.507Z,0
2017-09-08T01:15:16.085Z,0
2017-09-08T01:15:56.664Z,0
2017-09-08T01:16:37.253Z,0
2017-09-08T01:17:17.836Z,0
2017-09-08T01:17:58.400Z,0
2017-09-08T01:18:38.971Z,0
2017-09-08T01:19:19.541Z,0
2017-09-08T01:20:00.098Z,0
2017-09-08T01:20:40.738Z,0
2017-09-08T01:21:21.293Z,0
2017-09-08T01:22:01.866Z,0
2017-09-08T01:22:42.457Z,0
2017-09-08T01:23:23.021Z,0
2017-09-08T01:24:03.609Z,0
2017-09-08T01:24:44.210Z,0
2017-09-08T01:25:24.781Z,0
2017-09-08T01:26:05.377Z,0
2017-09-08T01:26:45.970Z,0
2017-09-08T01:27:26.576Z,0
2017-09-08T01:28:07.149Z,0
2017-09-08T01:28:47.722Z,0
2017-09-08T01:29:28.279Z,0
2017-09-08T01:30:08.838Z,0
2017-09-08T01:30:49.434Z,0
2017-09-08T01:31:30.001Z,0
2017-09-08T01:32:10.565Z,0
2017-09-08T01:32:51.139Z,0
2017-09-08T01:33:31.741Z,0
2017-09-08T01:34:12.302Z,0
2017-09-08T01:34:52.861Z,0
2017-09-08T01:35:33.415Z,0
2017-09-08T01:36:13.976Z,0
2017-09-08T01:36:54.545Z,0
2017-09-08T01:37:35.109Z,0
2017-09-08T01:38:15.693Z,0
2017-09-08T01:38:56.284Z,0
2017-09-08T01:39:36.844Z,0
2017-09-08T01:40:17.413Z,0
2017-09-08T01:40:57.981Z,0
2017-09-08T01:41:38.545Z,0
2017-09-08T01:42:19.117Z,0
2017-09-08T01:42:59.677Z,0
2017-09-08T01:43:40.251Z,0
2017-09-08T01:44:20.835Z,0
2017-09-08T01:45:01.412Z,0
2017-09-08T01:45:41.980Z,0
2017-09-08T01:46:22.554Z,0
2017-09-08T01:47:03.136Z,0
2017-09-08T01:47:43.697Z,0
2017-09-08T01:48:24.267Z,0
2017-09-08T01:49:04.842Z,0
2017-09-08T01:49:45.408Z,0
2017-09-08T01:50:25.975Z,0
2017-09-08T01:51:06.530Z,0
2017-09-08T01:51:47.098Z,0
2017-09-08T01:52:27.676Z,0
2017-09-08T01:53:08.250Z,0
2017-09-08T01:53:48.834Z,0
2017-09-08T01:54:29.423Z,0
2017-09-08T01:55:09.987Z,0
2017-09-08T01:55:50.544Z,0
2017-09-08T01:56:31.113Z,0
2017-09-08T01:57:11.687Z,0
2017-09-08T01:57:52.249Z,0
2017-09-08T01:58:32.821Z,0
2017-09-08T01:59:13.396Z,0
2017-09-08T01:59:53.983Z,0
2017-09-08T02:00:34.550Z,0
2017-09-08T02:01:15.136Z,0
2017-09-08T02:01:55.717Z,0
2017-09-08T02:02:36.279Z,0
2017-09-08T02:03:16.835Z,0
2017-09-08T02:03:57.397Z,0
2017-09-08T02:04:37.965Z,0
2017-09-08T02:05:18.535Z,0
2017-09-08T02:05:59.135Z,0
2017-09-08T02:06:39.692Z,0
2017-09-08T02:07:20.271Z,0
2017-09-08T02:08:00.839Z,0
2017-09-08T02:08:41.428Z,0
2017-09-08T02:09:21.997Z,0
2017-09-08T02:10:02.558Z,0
2017-09-08T02:10:43.129Z,0
2017-09-08T02:11:23.720Z,0
2017-09-08T02:12:04.291Z,0
2017-09-08T02:12:44.878Z,0
2017-09-08T02:13:25.446Z,0
2017-09-08T02:14:06.000Z,0
2017-09-08T02:14:46.574Z,0
2017-09-08T02:15:27.142Z,0
2017-09-08T02:16:07.738Z,0
2017-09-08T02:16:48.346Z,0
2017-09-08T02:17:28.901Z,0
2017-09-08T02:18:09.495Z,0
2017-09-08T02:18:50.065Z,0
2017-09-08T02:19:30.636Z,0
2017-09-08T02:20:11.212Z,0
2017-09-08T02:20:51.780Z,0
2017-09-08T02:21:32.343Z,0
2017-09-08T02:22:12.917Z,0
2017-09-08T02:22:53.563Z,0
2017-09-08T02:23:34.146Z,0
2017-09-08T02:24:14.707Z,0
2017-09-08T02:24:55.280Z,0
2017-09-08T02:25:35.878Z,0
2017-09-08T02:26:16.447Z,0
2017-09-08T02:26:57.038Z,0
2017-09-08T02:27:37.601Z,0
2017-09-08T02:28:18.163Z,0
2017-09-08T02:28:58.726Z,0
2017-09-08T02:29:39.301Z,0
2017-09-08T02:30:19.857Z,0
2017-09-08T02:31:00.427Z,0
2017-09-08T02:31:41.010Z,0
2017-09-08T02:32:21.615Z,0
2017-09-08T02:33:02.177Z,0
2017-09-08T02:33:42.744Z,0
2017-09-08T02:34:23.421Z,0
2017-09-08T02:35:03.989Z,0
2017-09-08T02:35:44.563Z,0
2017-09-08T02:36:25.125Z,0
2017-09-08T02:37:05.702Z,0
2017-09-08T02:37:46.273Z,0
2017-09-08T02:38:26.845Z,0
2017-09-08T02:39:07.409Z,0
2017-09-08T02:39:47.965Z,0
2017-09-08T02:40:28.589Z,0
2017-09-08T02:41:09.164Z,0
2017-09-08T02:41:49.738Z,0
2017-09-08T02:42:30.310Z,0
2017-09-08T02:43:10.867Z,0
2017-09-08T02:43:51.447Z,0
2017-09-08T02:44:32.018Z,0
2017-09-08T02:45:12.590Z,0
2017-09-08T02:45:53.153Z,0
2017-09-08T02:46:33.747Z,0
2017-09-08T02:47:14.298Z,0
2017-09-08T02:47:54.871Z,0
2017-09-08T02:48:35.425Z,0
2017-09-08T02:49:15.978Z,0
2017-09-08T02:49:56.538Z,0
2017-09-08T02:50:37.130Z,0
2017-09-08T02:51:17.703Z,0
2017-09-08T02:51:58.297Z,0
2017-09-08T02:52:38.855Z,0
2017-09-08T02:53:19.446Z,0
2017-09-08T02:54:00.054Z,0
2017-09-08T02:54:40.667Z,0
2017-09-08T02:55:21.231Z,0
2017-09-08T02:56:01.801Z,0
2017-09-08T02:56:42.369Z,0
2017-09-08T02:57:22.936Z,0
2017-09-08T02:58:03.484Z,0
2017-09-08T02:58:44.057Z,0
2017-09-08T02:59:24.625Z,0
2017-09-08T03:00:05.210Z,0
2017-09-08T03:00:45.785Z,0
2017-09-08T03:01:26.374Z,0
2017-09-08T03:02:06.967Z,0
2017-09-08T03:02:47.581Z,0
2017-09-08T03:03:28.153Z,0
2017-09-08T03:04:08.774Z,0
2017-09-08T03:04:49.369Z,0
2017-09-08T03:05:30.040Z,0
2017-09-08T03:06:10.617Z,0
2017-09-08T03:06:51.231Z,0
2017-09-08T03:07:31.805Z,0
2017-09-08T03:08:12.384Z,0
2017-09-08T03:08:52.967Z,0
2017-09-08T03:09:33.525Z,0
2017-09-08T03:10:14.100Z,0
2017-09-08T03:10:54.658Z,0
2017-09-08T03:11:35.227Z,0
2017-09-08T03:12:15.796Z,0
2017-09-08T03:12:56.366Z,0
2017-09-08T03:13:36.945Z,0
2017-09-08T03:14:17.549Z,0
2017-09-08T03:14:58.146Z,0
2017-09-08T03:15:38.710Z,0
2017-09-08T03:16:19.274Z,0
2017-09-08T03:16:59.868Z,0
2017-09-08T03:17:40.450Z,0
2017-09-08T03:18:21.011Z,0
2017-09-08T03:19:01.573Z,0
2017-09-08T03:19:42.163Z,0
2017-09-08T03:20:22.723Z,0
2017-09-08T03:21:03.287Z,0
2017-09-08T03:21:43.856Z,0
2017-09-08T03:22:24.453Z,0
2017-09-08T03:23:05.013Z,0
2017-09-08T03:23:45.607Z,0
2017-09-08T03:24:26.248Z,0
2017-09-08T03:25:06.802Z,0
2017-09-08T03:25:47.372Z,0
2017-09-08T03:26:27.936Z,0
2017-09-08T03:27:08.505Z,0
2017-09-08T03:27:49.060Z,0
2017-09-08T03:28:29.622Z,0
2017-09-08T03:29:10.207Z,0
2017-09-08T03:29:50.797Z,0
2017-09-08T03:30:31.368Z,0
2017-09-08T03:31:11.938Z,0
2017-09-08T03:31:52.528Z,0
2017-09-08T03:32:33.117Z,0
2017-09-08T03:33:13.679Z,0
2017-09-08T03:33:54.300Z,0
2017-09-08T03:34:34.861Z,0
2017-09-08T03:35:15.455Z,0
2017-09-08T03:35:56.035Z,0
2017-09-08T03:36:36.614Z,0
2017-09-08T03:37:17.179Z,0
2017-09-08T03:37:57.763Z,0
2017-09-08T03:38:38.323Z,0
2017-09-08T03:39:18.908Z,0
2017-09-08T03:39:59.487Z,0
2017-09-08T03:40:40.067Z,0
2017-09-08T03:41:20.649Z,0
2017-09-08T03:42:01.236Z,0
2017-09-08T03:42:41.832Z,0
2017-09-08T03:43:22.406Z,0
2017-09-08T03:44:02.957Z,0
2017-09-08T03:44:43.541Z,0
2017-09-08T03:45:24.115Z,0
2017-09-08T03:46:04.709Z,0
2017-09-08T03:46:45.273Z,0
2017-09-08T03:47:25.840Z,0
2017-09-08T03:48:06.439Z,0
2017-09-08T03:48:47.016Z,0
2017-09-08T03:49:27.575Z,0
2017-09-08T03:50:08.134Z,0
2017-09-08T03:50:48.691Z,0
2017-09-08T03:51:29.262Z,0
2017-09-08T03:52:09.833Z,0
2017-09-08T03:52:50.419Z,0
2017-09-08T03:53:30.998Z,0
2017-09-08T03:54:11.572Z,0
2017-09-08T03:54:52.139Z,0
2017-09-08T03:55:32.705Z,0
2017-09-08T03:56:13.284Z,0
2017-09-08T03:56:53.860Z,0
2017-09-08T03:57:34.453Z,0
2017-09-08T03:58:15.023Z,0
2017-09-08T03:58:55.633Z,0
2017-09-08T03:59:36.191Z,0
2017-09-08T04:00:16.824Z,0
2017-09-08T04:00:57.445Z,0
2017-09-08T04:01:38.019Z,0
2017-09-08T04:02:18.583Z,0
2017-09-08T04:02:59.172Z,0
2017-09-08T04:03:39.726Z,0
2017-09-08T04:04:20.278Z,0
2017-09-08T04:05:00.865Z,0
2017-09-08T04:05:41.437Z,0
2017-09-08T04:06:22.030Z,0
2017-09-08T04:07:02.601Z,0
2017-09-08T04:07:43.175Z,4
2017-09-08T04:08:23.761Z,4
2017-09-08T04:09:04.365Z,4
2017-09-08T04:09:44.930Z,4
2017-09-08T04:10:25.524Z,4
2017-09-08T04:11:06.080Z,4
2017-09-08T04:11:46.641Z,4
2017-09-08T04:12:27.223Z,4
2017-09-08T04:13:07.798Z,4
2017-09-08T04:13:48.356Z,0
2017-09-08T04:14:28.932Z,4
2017-09-08T04:15:09.512Z,4
2017-09-08T04:15:50.086Z,4
2017-09-08T04:16:30.665Z,4
2017-09-08T04:17:11.232Z,4
2017-09-08T04:17:51.808Z,4
2017-09-08T04:18:32.374Z,8
2017-09-08T04:19:12.936Z,4
2017-09-08T04:19:53.513Z,8
2017-09-08T04:20:34.078Z,8
2017-09-08T04:21:14.649Z,12
2017-09-08T04:21:55.229Z,12
2017-09-08T04:22:35.804Z,12
2017-09-08T04:23:16.347Z,16
2017-09-08T04:23:56.904Z,16
2017-09-08T04:24:37.517Z,20
2017-09-08T04:25:18.099Z,20
2017-09-08T04:25:58.679Z,24
2017-09-08T04:26:39.246Z,28
2017-09-08T04:27:19.826Z,28
2017-09-08T04:28:00.419Z,28
2017-09-08T04:28:40.984Z,28
2017-09-08T04:29:21.544Z,32
2017-09-08T04:30:02.144Z,32
2017-09-08T04:30:42.708Z,32
2017-09-08T04:31:23.305Z,32
2017-09-08T04:32:03.861Z,32
2017-09-08T04:32:44.442Z,36
2017-09-08T04:33:25.019Z,36
2017-09-08T04:34:05.588Z,32
2017-09-08T04:34:46.164Z,36
2017-09-08T04:35:26.738Z,36
2017-09-08T04:36:07.323Z,36
2017-09-08T04:36:47.951Z,36
2017-09-08T04:37:28.541Z,40
2017-09-08T04:38:09.124Z,40
2017-09-08T04:38:49.701Z,40
2017-09-08T04:39:30.299Z,40
2017-09-08T04:40:10.864Z,44
2017-09-08T04:40:51.420Z,48
2017-09-08T04:41:32.033Z,52
2017-09-08T04:42:12.605Z,56
2017-09-08T04:42:53.225Z,56
2017-09-08T04:43:33.787Z,60
2017-09-08T04:44:14.368Z,64
2017-09-08T04:44:54.943Z,68
2017-09-08T04:45:35.517Z,68
2017-09-08T04:46:16.097Z,72
2017-09-08T04:46:56.683Z,72
2017-09-08T04:47:37.297Z,76
2017-09-08T04:48:17.857Z,76
2017-09-08T04:48:58.433Z,76
2017-09-08T04:49:39.000Z,76
2017-09-08T04:50:19.569Z,76
2017-09-08T04:51:00.153Z,76
2017-09-08T04:51:40.736Z,76
2017-09-08T04:52:21.307Z,68
2017-09-08T04:53:01.876Z,72
2017-09-08T04:53:42.471Z,68
2017-09-08T04:54:23.036Z,72
2017-09-08T04:55:03.606Z,76
2017-09-08T04:55:44.166Z,80
2017-09-08T04:56:24.724Z,80
2017-09-08T04:57:05.281Z,84
2017-09-08T04:57:45.856Z,88
2017-09-08T04:58:26.443Z,92
2017-09-08T04:59:07.011Z,92
2017-09-08T04:59:47.582Z,92
2017-09-08T05:00:28.155Z,92
2017-09-08T05:01:08.704Z,96
2017-09-08T05:01:49.270Z,100
2017-09-08T05:02:29.847Z,104
2017-09-08T05:03:10.425Z,112
2017-09-08T05:03:50.980Z,112
2017-09-08T05:04:31.580Z,116
2017-09-08T05:05:12.163Z,120
2017-09-08T05:05:52.746Z,128
2017-09-08T05:06:33.304Z,140
2017-09-08T05:07:13.873Z,152
2017-09-08T05:07:54.436Z,164
2017-09-08T05:08:34.992Z,184
2017-09-08T05:09:15.566Z,196
2017-09-08T05:09:56.134Z,204
2017-09-08T05:10:36.692Z,208
2017-09-08T05:11:17.249Z,216
2017-09-08T05:11:57.836Z,220
2017-09-08T05:12:38.403Z,228
2017-09-08T05:13:18.977Z,232
2017-09-08T05:13:59.538Z,240
2017-09-08T05:14:40.110Z,244
2017-09-08T05:15:20.680Z,248
2017-09-08T05:16:01.255Z,248
2017-09-08T05:16:41.814Z,244
2017-09-08T05:17:22.406Z,240
2017-09-08T05:18:02.965Z,244
2017-09-08T05:18:43.529Z,244
2017-09-08T05:19:24.089Z,244
2017-09-08T05:20:04.674Z,244
2017-09-08T05:20:45.245Z,248
2017-09-08T05:21:25.824Z,244
2017-09-08T05:22:06.388Z,236
2017-09-08T05:22:46.964Z,228
2017-09-08T05:23:27.534Z,212
2017-09-08T05:24:08.121Z,200
2017-09-08T05:24:48.711Z,184
2017-09-08T05:25:29.272Z,180
2017-09-08T05:26:09.847Z,180
2017-09-08T05:26:50.423Z,180
2017-09-08T05:27:30.996Z,180
2017-09-08T05:28:11.581Z,180
2017-09-08T05:28:52.163Z,188
2017-09-08T05:29:32.736Z,208
2017-09-08T05:30:13.310Z,224
2017-09-08T05:30:53.883Z,236
2017-09-08T05:31:34.473Z,252
2017-09-08T05:32:15.040Z,272
2017-09-08T05:32:55.611Z,292
2017-09-08T05:33:36.175Z,324
2017-09-08T05:34:16.756Z,360
2017-09-08T05:34:57.309Z,408
2017-09-08T05:35:37.880Z,452
2017-09-08T05:36:18.466Z,484
2017-09-08T05:36:59.029Z,504
2017-09-08T05:37:39.591Z,520
2017-09-08T05:38:20.164Z,536
2017-09-08T05:39:00.794Z,544
2017-09-08T05:39:41.395Z,548
2017-09-08T05:40:21.947Z,552
2017-09-08T05:41:02.516Z,544
2017-09-08T05:41:43.076Z,536
2017-09-08T05:42:23.638Z,528
2017-09-08T05:43:04.227Z,512
2017-09-08T05:43:44.845Z,484
2017-09-08T05:44:25.419Z,468
2017-09-08T05:45:05.985Z,456
2017-09-08T05:45:46.555Z,424
2017-09-08T05:46:27.114Z,408
2017-09-08T05:47:07.703Z,396
2017-09-08T05:47:48.294Z,400
2017-09-08T05:48:28.882Z,416
2017-09-08T05:49:09.457Z,420
2017-09-08T05:49:50.021Z,432
2017-09-08T05:50:30.607Z,448
2017-09-08T05:51:11.208Z,472
2017-09-08T05:51:52.116Z,484
2017-09-08T05:52:32.699Z,496
2017-09-08T05:53:13.264Z,516
2017-09-08T05:53:53.837Z,524
2017-09-08T05:54:34.403Z,532
2017-09-08T05:55:14.988Z,528
2017-09-08T05:55:55.578Z,524
2017-09-08T05:56:36.129Z,524
2017-09-08T05:57:16.917Z,532
2017-09-08T05:57:57.509Z,552
2017-09-08T05:58:38.082Z,564
2017-09-08T05:59:18.650Z,592
2017-09-08T05:59:59.264Z,636
2017-09-08T06:00:39.919Z,672
2017-09-08T06:01:20.491Z,712
2017-09-08T06:02:01.321Z,752
2017-09-08T06:02:41.902Z,796
2017-09-08T06:03:23.002Z,852
2017-09-08T06:04:03.673Z,900
2017-09-08T06:04:44.275Z,948
2017-09-08T06:05:24.864Z,992
2017-09-08T06:06:05.544Z,1032
2017-09-08T06:06:46.146Z,1088
2017-09-08T06:07:26.699Z,1156
2017-09-08T06:08:07.304Z,1208
2017-09-08T06:08:47.870Z,1236
2017-09-08T06:09:28.530Z,1228
2017-09-08T06:10:09.242Z,1200
2017-09-08T06:10:49.874Z,1152
2017-09-08T06:11:30.531Z,1096
2017-09-08T06:12:11.082Z,1044
2017-09-08T06:12:51.643Z,1004
2017-09-08T06:13:32.219Z,968
2017-09-08T06:14:12.789Z,924
2017-09-08T06:14:53.368Z,868
2017-09-08T06:15:33.978Z,816
2017-09-08T06:16:14.544Z,776
2017-09-08T06:16:55.100Z,736
2017-09-08T06:17:35.724Z,716
2017-09-08T06:18:16.297Z,712
2017-09-08T06:18:56.870Z,728
2017-09-08T06:19:37.481Z,740
2017-09-08T06:20:18.055Z,760
2017-09-08T06:20:58.648Z,792
2017-09-08T06:21:39.206Z,836
2017-09-08T06:22:19.814Z,892
2017-09-08T06:23:00.416Z,952
2017-09-08T06:23:40.989Z,1000
2017-09-08T06:24:21.725Z,1048
2017-09-08T06:25:02.303Z,1088
2017-09-08T06:25:42.905Z,1112
2017-09-08T06:26:23.535Z,1116
2017-09-08T06:27:04.265Z,1128
2017-09-08T06:27:45.706Z,1176
2017-09-08T06:28:26.604Z,1244
2017-09-08T06:29:07.182Z,1320
2017-09-08T06:29:47.782Z,1408
2017-09-08T06:30:28.366Z,1500
2017-09-08T06:31:08.944Z,1596
2017-09-08T06:31:49.754Z,1676
2017-09-08T06:32:30.326Z,1740
2017-09-08T06:33:11.041Z,1776
2017-09-08T06:33:51.624Z,1796
2017-09-08T06:34:32.188Z,1768
2017-09-08T06:35:12.853Z,1728
2017-09-08T06:35:53.739Z,1680
2017-09-08T06:36:34.444Z,1648
2017-09-08T06:37:15.030Z,1632
2017-09-08T06:37:55.724Z,1612
2017-09-08T06:38:36.314Z,1608
2017-09-08T06:39:16.876Z,1592
2017-09-08T06:39:57.447Z,1580
2017-09-08T06:40:38.348Z,1588
2017-09-08T06:41:18.906Z,1624
2017-09-08T06:41:59.471Z,1656
2017-09-08T06:42:40.238Z,1684
2017-09-08T06:43:21.037Z,1696
2017-09-08T06:44:01.612Z,1692
2017-09-08T06:44:42.223Z,1652
2017-09-08T06:45:22.780Z,1588
2017-09-08T06:46:03.354Z,1536
2017-09-08T06:46:43.934Z,1488
2017-09-08T06:47:24.506Z,1428
2017-09-08T06:48:05.072Z,1368
2017-09-08T06:48:45.643Z,1316
2017-09-08T06:49:26.216Z,1276
2017-09-08T06:50:06.800Z,1248
2017-09-08T06:50:47.462Z,1236
2017-09-08T06:51:28.102Z,1244
2017-09-08T06:52:08.679Z,1272
2017-09-08T06:52:49.343Z,1312
2017-09-08T06:53:30.023Z,1364
2017-09-08T06:54:10.599Z,1400
2017-09-08T06:54:51.169Z,1388
2017-09-08T06:55:31.747Z,1368
2017-09-08T06:56:12.356Z,1352
2017-09-08T06:56:52.946Z,1356
2017-09-08T06:57:33.511Z,1396
2017-09-08T06:58:14.066Z,1464
2017-09-08T06:58:54.655Z,1524
2017-09-08T06:59:35.244Z,1544
2017-09-08T07:00:15.816Z,1528
2017-09-08T07:00:56.376Z,1488
2017-09-08T07:01:36.977Z,1448
2017-09-08T07:02:17.536Z,1420
2017-09-08T07:02:58.102Z,1436
2017-09-08T07:03:38.677Z,1468
2017-09-08T07:04:19.262Z,1524
2017-09-08T07:04:59.838Z,1596
2017-09-08T07:05:40.395Z,1668
2017-09-08T07:06:20.966Z,1728
2017-09-08T07:07:01.536Z,1788
2017-09-08T07:07:42.211Z,1868
2017-09-08T07:08:22.770Z,1920
2017-09-08T07:09:03.333Z,1916
2017-09-08T07:09:43.913Z,1892
2017-09-08T07:10:24.496Z,1876
2017-09-08T07:11:05.065Z,1876
2017-09-08T07:11:45.650Z,1836
2017-09-08T07:12:26.227Z,1796
2017-09-08T07:13:06.784Z,1764
2017-09-08T07:13:47.350Z,1816
2017-09-08T07:14:27.947Z,1956
2017-09-08T07:15:08.784Z,2140
2017-09-08T07:15:49.354Z,2268
2017-09-08T07:16:29.939Z,2392
2017-09-08T07:17:10.522Z,2460
2017-09-08T07:17:51.106Z,2492
2017-09-08T07:18:31.814Z,2492
2017-09-08T07:19:12.354Z,2584
2017-09-08T07:19:52.949Z,2752
2017-09-08T07:20:33.538Z,2984
2017-09-08T07:21:14.101Z,3284
2017-09-08T07:21:55.060Z,3704
2017-09-08T07:22:35.630Z,4124
2017-09-08T07:23:16.258Z,4336
2017-09-08T07:23:56.841Z,4392
2017-09-08T07:24:37.431Z,4432
2017-09-08T07:25:17.989Z,4456
2017-09-08T07:25:58.563Z,4372
2017-09-08T07:26:39.128Z,3968
2017-09-08T07:27:19.725Z,3568
2017-09-08T07:28:00.279Z,3348
2017-09-08T07:28:40.839Z,3264
2017-09-08T07:29:21.418Z,3224
2017-09-08T07:30:02.011Z,3252
2017-09-08T07:30:42.569Z,3320
2017-09-08T07:31:23.153Z,3408
2017-09-08T07:32:03.722Z,3496
2017-09-08T07:32:44.286Z,3600
2017-09-08T07:33:24.869Z,3724
2017-09-08T07:34:05.433Z,3884
2017-09-08T07:34:46.006Z,4164
2017-09-08T07:35:26.638Z,4500
2017-09-08T07:36:07.252Z,5092
2017-09-08T07:36:47.842Z,5364
2017-09-08T07:37:28.427Z,5616
2017-09-08T07:38:09.035Z,5444
2017-09-08T07:38:49.634Z,5460
2017-09-08T07:39:30.196Z,5440
2017-09-08T07:40:10.780Z,5272
2017-09-08T07:40:51.397Z,5500
2017-09-08T07:41:32.003Z,6212
2017-09-08T07:42:12.604Z,7184
2017-09-08T07:42:53.193Z,7396
2017-09-08T07:43:33.773Z,7112
2017-09-08T07:44:14.346Z,6564
2017-09-08T07:44:54.943Z,6168
2017-09-08T07:45:35.548Z,5924
2017-09-08T07:46:16.172Z,5620
2017-09-08T07:46:56.741Z,5348
2017-09-08T07:47:37.306Z,5076
2017-09-08T07:48:17.909Z,4824
2017-09-08T07:48:58.477Z,4668
2017-09-08T07:49:39.048Z,4688
2017-09-08T07:50:19.623Z,4784
2017-09-08T07:51:00.197Z,4844
2017-09-08T07:51:40.758Z,4812
2017-09-08T07:52:21.338Z,4684
2017-09-08T07:53:01.904Z,4648
2017-09-08T07:53:42.454Z,4452
2017-09-08T07:54:23.036Z,4404
2017-09-08T07:55:03.618Z,4464
2017-09-08T07:55:44.190Z,4672
2017-09-08T07:56:24.774Z,5112
2017-09-08T07:57:05.363Z,5532
2017-09-08T07:57:45.932Z,5904
2017-09-08T07:58:26.504Z,6088
2017-09-08T07:59:07.079Z,6556
2017-09-08T07:59:47.643Z,6556
2017-09-08T08:00:28.229Z,6188
2017-09-08T08:01:08.836Z,5324
2017-09-08T08:01:49.410Z,5068
2017-09-08T08:02:29.960Z,4912
2017-09-08T08:03:10.536Z,5304
2017-09-08T08:03:51.125Z,5520
2017-09-08T08:04:31.695Z,5412
2017-09-08T08:05:12.249Z,5224
2017-09-08T08:05:52.842Z,5140
2017-09-08T08:06:33.457Z,4888
2017-09-08T08:07:14.028Z,4736
2017-09-08T08:07:54.589Z,4588
2017-09-08T08:08:35.174Z,4436
2017-09-08T08:09:15.740Z,4252
2017-09-08T08:09:56.298Z,4056
2017-09-08T08:10:36.869Z,3904
2017-09-08T08:11:17.441Z,3908
2017-09-08T08:11:58.050Z,4036
2017-09-08T08:12:38.623Z,4264
2017-09-08T08:13:19.205Z,4376
2017-09-08T08:13:59.799Z,4576
2017-09-08T08:14:40.363Z,4712
2017-09-08T08:15:20.950Z,4792
2017-09-08T08:16:01.538Z,4872
2017-09-08T08:16:42.116Z,4864
2017-09-08T08:17:22.673Z,4848
2017-09-08T08:18:03.249Z,4848
2017-09-08T08:18:43.850Z,5120
2017-09-08T08:19:24.421Z,5304
2017-09-08T08:20:04.995Z,5352
2017-09-08T08:20:45.552Z,5400
2017-09-08T08:21:26.140Z,5364
2017-09-08T08:22:06.721Z,5200
2017-09-08T08:22:47.261Z,4992
2017-09-08T08:23:27.814Z,4668
2017-09-08T08:24:08.382Z,4244
2017-09-08T08:24:48.958Z,3804
2017-09-08T08:25:29.535Z,3400
2017-09-08T08:26:10.134Z,3040
2017-09-08T08:26:50.695Z,2736
2017-09-08T08:27:31.256Z,2488
2017-09-08T08:28:11.810Z,2308
2017-09-08T08:28:52.370Z,2176
2017-09-08T08:29:32.942Z,2088
2017-09-08T08:30:13.520Z,2036
2017-09-08T08:30:54.082Z,2020
2017-09-08T08:31:34.661Z,2036
2017-09-08T08:32:15.216Z,2060
2017-09-08T08:32:55.788Z,2092
2017-09-08T08:33:36.361Z,2144
2017-09-08T08:34:16.930Z,2216
2017-09-08T08:34:57.509Z,2284
2017-09-08T08:35:38.065Z,2360
2017-09-08T08:36:18.620Z,2448
2017-09-08T08:36:59.254Z,2548
2017-09-08T08:37:39.819Z,2664
2017-09-08T08:38:20.378Z,2792
2017-09-08T08:39:00.939Z,2960
2017-09-08T08:39:41.521Z,3136
2017-09-08T08:40:22.094Z,3340
2017-09-08T08:41:02.684Z,3600
2017-09-08T08:41:43.249Z,3848
2017-09-08T08:42:23.815Z,4064
2017-09-08T08:43:04.375Z,4176
2017-09-08T08:43:44.938Z,4144
2017-09-08T08:44:25.499Z,4004
2017-09-08T08:45:06.077Z,3844
2017-09-08T08:45:46.646Z,3676
2017-09-08T08:46:27.716Z,3536
2017-09-08T08:47:08.266Z,3404
2017-09-08T08:47:48.855Z,3276
2017-09-08T08:48:29.616Z,3128
2017-09-08T08:49:10.193Z,2948
2017-09-08T08:49:50.784Z,2772
2017-09-08T08:50:31.377Z,2640
2017-09-08T08:51:11.963Z,2532
2017-09-08T08:51:52.529Z,2444
2017-09-08T08:52:33.194Z,2372
2017-09-08T08:53:13.763Z,2324
2017-09-08T08:53:54.322Z,2292
2017-09-08T08:54:34.925Z,2268
2017-09-08T08:55:15.566Z,2248
2017-09-08T08:55:56.135Z,2216
2017-09-08T08:56:36.696Z,2168
2017-09-08T08:57:17.252Z,2112
2017-09-08T08:57:57.862Z,2056
2017-09-08T08:58:38.391Z,2000
2017-09-08T08:59:18.974Z,1972
2017-09-08T08:59:59.536Z,1964
2017-09-08T09:00:40.101Z,1996
2017-09-08T09:01:20.676Z,2052
2017-09-08T09:02:01.293Z,2128
2017-09-08T09:02:41.858Z,2200
2017-09-08T09:03:22.475Z,2268
2017-09-08T09:04:03.033Z,2332
2017-09-08T09:04:43.588Z,2392
2017-09-08T09:05:24.246Z,2436
2017-09-08T09:06:04.835Z,2464
2017-09-08T09:06:45.487Z,2476
2017-09-08T09:07:26.108Z,2516
2017-09-08T09:08:06.676Z,2572
2017-09-08T09:08:47.301Z,2620
2017-09-08T09:09:27.949Z,2652
2017-09-08T09:10:08.519Z,2676
2017-09-08T09:10:49.163Z,2692
2017-09-08T09:11:29.718Z,2700
2017-09-08T09:12:10.386Z,2700
2017-09-08T09:12:50.951Z,2692
2017-09-08T09:13:31.507Z,2668
2017-09-08T09:14:12.165Z,2624
2017-09-08T09:14:52.731Z,2580
2017-09-08T09:15:33.322Z,2544
2017-09-08T09:16:13.882Z,2524
2017-09-08T09:16:54.574Z,2496
2017-09-08T09:17:35.130Z,2480
2017-09-08T09:18:15.865Z,2468
2017-09-08T09:18:56.436Z,2460
2017-09-08T09:19:37.044Z,2448
2017-09-08T09:20:17.726Z,2436
2017-09-08T09:20:58.294Z,2432
2017-09-08T09:21:38.866Z,2432
2017-09-08T09:22:19.440Z,2436
2017-09-08T09:23:00.060Z,2432
2017-09-08T09:23:40.650Z,2440
2017-09-08T09:24:21.213Z,2452
2017-09-08T09:25:01.784Z,2472
2017-09-08T09:25:42.344Z,2488
2017-09-08T09:26:22.908Z,2512
2017-09-08T09:27:03.477Z,2536
2017-09-08T09:27:44.069Z,2572
2017-09-08T09:28:24.642Z,2616
2017-09-08T09:29:05.869Z,2664
2017-09-08T09:29:47.367Z,2716
2017-09-08T09:30:27.931Z,2772
2017-09-08T09:31:10.088Z,2820